x

Susquehanna, Md (44057) Weather Station

9:50am - Sat 23rd May 2015 All times are EDT. -4 hours from GMT.

  • Wind
    11mph, 18mph gusts
  • Air Temp 56°f
  • Sea Pressure 1031.4mb
  • Susquehanna, Md
  • Susquehanna, Md

More Historic Weather Station data

Upgrade to MSW Pro to gain access to the past 30 days of data for over 8000 Wavebouys and Weather Stations around the globe.

Join Pro

Comparision Forecast

View Surf forecast
   
Sat 05/23 9:50am 11 18 mph 1031.4mb - 56f
9:40am 11 16 mph 1031.4mb - 56f
9:30am 9 16 mph 1031.3mb - 56f
9:20am 9 13 mph 1031.4mb - 55f
9:10am 11 13 mph 1031.3mb - 55f
9:00am 9 16 mph 1031.3mb 71f 56f
8:50am 13 18 mph 1031.2mb - 55f
8:40am 13 16 mph 1031mb - 55f
8:30am 13 18 mph 1030.9mb - 55f
8:20am 11 18 mph 1030.8mb - 55f
8:10am 11 16 mph 1030.7mb - 55f
8:00am 11 16 mph 1030.6mb 71f 55f
7:50am 9 13 mph 1030.4mb - 55f
7:40am 9 11 mph 1030.2mb - 55f
7:30am 9 11 mph 1030.1mb - 55f
7:20am 9 13 mph 1029.8mb - 55f
7:10am 9 11 mph 1029.6mb - 54f
7:00am 7 11 mph 1029.5mb 71f 54f
6:50am 7 11 mph 1029.3mb - 54f
6:40am 7 9 mph 1028.7mb - 53f
6:30am 7 9 mph 1028.8mb - 53f
6:20am 7 9 mph 1028.6mb - 53f
6:10am 7 9 mph 1028.3mb - 53f
6:00am 7 9 mph 1028mb 71f 53f
5:50am 7 9 mph 1027.7mb - 53f
5:40am 7 9 mph 1027.5mb - 54f
5:30am 9 13 mph 1027.2mb - 55f
5:20am 11 16 mph 1027mb - 56f
5:10am 9 13 mph 1026.9mb - 56f
5:00am 9 16 mph 1026.7mb 71f 56f
4:50am 9 11 mph 1026.6mb - 56f
4:40am 9 13 mph 1026.4mb - 57f
4:30am 9 16 mph 1026.3mb - 57f
4:20am 11 16 mph 1026.2mb - 57f
4:10am 13 18 mph 1026mb - 58f
4:00am 11 16 mph 1025.9mb 71f 58f
3:50am 11 16 mph 1025.7mb - 58f
3:40am 13 18 mph 1025.5mb - 58f
3:30am 13 20 mph 1025.4mb - 58f
3:20am 11 16 mph 1025.3mb - 59f
3:10am 13 18 mph 1025.1mb - 60f
3:00am 13 18 mph 1025mb 71f 60f
2:50am 16 20 mph 1024.9mb - 60f
2:40am 16 20 mph 1024.8mb - 60f
2:30am 16 20 mph 1024.8mb - 60f
2:20am 11 16 mph 1024.8mb - 60f
2:10am 11 13 mph 1024.8mb - 60f
2:00am 9 11 mph 1024.8mb 71f 60f
1:50am 9 11 mph 1024.9mb - 61f
1:40am 9 11 mph 1024.8mb - 61f
1:30am 11 16 mph 1024.5mb - 62f
1:20am 11 16 mph 1024.2mb - 62f
1:10am 13 18 mph 1024mb - 63f
1:00am 16 18 mph 1023.9mb 71f 63f
12:50am 16 18 mph 1023.9mb - 63f
12:40am 13 18 mph 1023.7mb - 64f
12:30am 16 20 mph 1023.6mb - 64f
12:20am 16 20 mph 1023.4mb - 64f
12:10am 13 18 mph 1023.3mb - 64f
12:00am 13 18 mph 1023mb 72f 65f
Fri 05/22 11:50pm 16 22 mph 1022.8mb - 65f
11:40pm 18 25 mph 1022.6mb - 66f
11:30pm 16 20 mph 1022.4mb - 67f
11:20pm 18 25 mph 1022.2mb - 67f
11:10pm 16 22 mph 1022mb - 67f
11:00pm 18 22 mph 1021.8mb 72f 67f
10:50pm 13 18 mph 1021.5mb - 67f
10:40pm 11 16 mph 1021.3mb - 67f
10:30pm 11 16 mph 1021.1mb - 67f
10:20pm 11 16 mph 1020.9mb - 68f
10:10pm 11 16 mph 1020.6mb - 68f
10:00pm 13 16 mph 1020.4mb 72f 68f
9:50pm 13 18 mph 1020.2mb - 68f
9:40pm 13 18 mph 1020mb - 69f
9:30pm 13 16 mph 1019.8mb - 69f
9:20pm 13 22 mph 1019.6mb - 69f
9:10pm 13 18 mph 1019.4mb - 69f
9:00pm 11 16 mph 1019.2mb 72f 69f
8:50pm 11 18 mph 1019.1mb - 70f
8:40pm 13 18 mph 1019mb - 70f
8:30pm 13 20 mph 1018.9mb - 70f
8:20pm 16 22 mph 1018.8mb - 71f
8:10pm 16 25 mph 1018.6mb - 71f
8:00pm 18 27 mph 1018.5mb 72f 71f
7:50pm 18 22 mph 1018.4mb - 71f
7:40pm 18 25 mph 1018.2mb - 73f
7:30pm 11 16 mph 1017.8mb - 73f
7:20pm 13 22 mph 1017.6mb - 73f
7:10pm 11 18 mph 1017.4mb - 73f
7:00pm 11 18 mph 1017.2mb 72f 73f
6:50pm 11 16 mph 1017.1mb - 73f
6:40pm 11 18 mph 1017.1mb - 73f
6:30pm 13 18 mph 1017mb - 73f
6:20pm 16 20 mph 1017mb - 73f
6:10pm 18 25 mph 1017mb - 73f
6:00pm 20 27 mph 1017mb 72f 73f
5:50pm 18 27 mph 1017mb - 73f
5:40pm 13 20 mph 1016.9mb - 73f
5:30pm 18 25 mph 1016.8mb - 73f
5:20pm 18 25 mph 1016.7mb - 74f
5:10pm 20 27 mph 1016.6mb - 74f
5:00pm 16 22 mph 1016.5mb 72f 73f
4:50pm 16 25 mph 1016.5mb - 73f
4:40pm 16 25 mph 1016.4mb - 73f
4:30pm 16 22 mph 1016.4mb - 73f
4:20pm 18 25 mph 1016.5mb - 72f
4:10pm 16 20 mph 1016.5mb - 72f
4:00pm 16 22 mph 1016.6mb 72f 72f
3:50pm 16 22 mph 1016.6mb - 72f
3:40pm 18 27 mph 1016.7mb - 72f
3:30pm 18 29 mph 1016.7mb - 72f
3:20pm 16 27 mph 1016.7mb - 71f
3:10pm 16 27 mph 1016.8mb - 71f
3:00pm 16 25 mph 1016.8mb 72f 71f
2:50pm 20 27 mph 1016.8mb - 71f
2:40pm 16 25 mph 1016.9mb - 71f
2:30pm 13 20 mph 1016.8mb - 71f
2:20pm 18 27 mph 1016.9mb - 71f
2:10pm 18 25 mph 1016.9mb - 70f
2:00pm 20 27 mph 1016.9mb 72f 70f
1:50pm 18 25 mph 1016.9mb - 70f
1:40pm 13 22 mph 1017mb - 70f
1:30pm 18 29 mph 1017.1mb - 70f
1:20pm 18 25 mph 1017.2mb - 69f
1:10pm 16 22 mph 1017.2mb - 69f
1:00pm 13 20 mph 1017.2mb 72f 69f
12:50pm 16 25 mph 1017.2mb - 68f
12:40pm 16 25 mph 1017.2mb - 69f
12:30pm 16 22 mph 1017.2mb - 68f
12:20pm 16 22 mph 1017.3mb - 68f
12:10pm 16 22 mph 1017.3mb - 68f
12:00pm 16 22 mph 1017.3mb 72f 68f
11:50am 16 22 mph 1017.2mb - 67f
11:40am 16 25 mph 1017.3mb - 67f
11:30am 16 20 mph 1017.3mb - 67f
11:20am 16 25 mph 1017.2mb - 67f
11:10am 16 22 mph 1017.2mb - 66f
11:00am 13 22 mph 1017.1mb 71f 66f
10:50am 16 22 mph 1017.1mb - 65f
10:40am 13 20 mph 1017mb - 65f
10:30am 13 20 mph 1017mb - 64f
10:20am 13 18 mph 1016.9mb - 64f
10:10am 16 20 mph 1017mb - 64f
10:00am 16 22 mph 1017mb 71f 63f
9:50am 13 20 mph 1017mb - 63f
9:40am 13 20 mph 1016.9mb - 62f
9:20am 13 22 mph 1016.8mb - 62f
9:10am 13 20 mph 1016.9mb - 61f
9:00am 9 16 mph 1016.8mb 71f 60f
8:50am 9 13 mph 1016.7mb - 59f
8:40am 9 11 mph 1016.6mb - 59f
8:30am 9 11 mph 1016.6mb - 58f
8:20am 9 13 mph 1016.5mb - 58f
8:10am 9 13 mph 1016.5mb - 57f
8:00am 11 13 mph 1016.3mb 71f 57f
7:50am 11 16 mph 1016.2mb - 56f
7:40am 11 16 mph 1016.1mb - 56f
7:30am 11 13 mph 1016mb - 56f
7:20am 9 11 mph 1016mb - 55f
7:10am 9 11 mph 1016mb - 55f
7:00am 9 11 mph 1015.9mb 71f 55f
6:50am 9 11 mph 1015.8mb - 54f
6:40am 9 11 mph 1015.7mb - 54f
6:30am 9 11 mph 1015.7mb - 53f
6:20am 9
mph
1015.6mb - 53f
6:10am 9 11 mph 1015.5mb - 53f
6:00am 9 13 mph 1015.4mb 71f 53f
5:50am 9 11 mph 1015.2mb - 53f
5:40am 9 11 mph 1015.1mb - 53f
5:30am 11 13 mph 1015mb - 53f
5:20am 9 13 mph 1014.8mb - 53f
5:10am 11 16 mph 1014.6mb - 53f
5:00am 11 16 mph 1014.5mb 71f 53f
4:50am 13 16 mph 1014.4mb - 53f
4:40am 13 16 mph 1014.2mb - 53f
4:30am 13 18 mph 1014mb - 53f
4:20am 13 18 mph 1013.9mb - 54f
4:10am 13 16 mph 1013.7mb - 54f
4:00am 13 16 mph 1013.7mb 71f 54f
3:50am 11 16 mph 1013.6mb - 53f
3:40am 11 13 mph 1013.5mb - 53f
3:30am 11 13 mph 1013.4mb - 53f
3:20am 9 13 mph 1013.3mb - 53f
3:10am 9 11 mph 1013.4mb - 53f
3:00am 9 11 mph 1013.4mb 71f 54f
2:50am 11 13 mph 1013.3mb - 54f
2:40am 9 13 mph 1013.4mb - 54f
2:30am 9 13 mph 1013.4mb - 54f
2:20am 9 13 mph 1013.4mb - 54f
2:10am 9 13 mph 1013.5mb - 55f
2:00am 11 13 mph 1013.5mb 71f 55f
1:50am 9 13 mph 1013.4mb - 54f
1:40am 9 11 mph 1013.3mb - 55f
1:30am 7 11 mph 1013.3mb - 54f
1:20am 7 11 mph 1013.4mb - 54f
1:10am 9 11 mph 1013.5mb - 54f
1:00am 9 13 mph 1013.5mb 71f 54f
12:50am 11 13 mph 1013.6mb - 54f
12:40am 9 13 mph 1013.6mb - 54f
12:30am 11 13 mph 1013.4mb - 54f
12:20am 11 13 mph 1013.3mb - 54f
12:10am 9 11 mph 1013.3mb - 54f
12:00am 7 11 mph 1013.3mb 72f 53f
Thu 05/21 11:50pm 7 9 mph 1013.3mb - 53f
11:40pm 7
mph
1013.2mb - 53f
11:30pm 7 9 mph 1013.3mb - 53f
11:20pm 7 9 mph 1013.3mb - 53f
11:10pm 7 9 mph 1013.2mb - 53f
11:00pm 7
mph
1013.2mb 72f 53f
10:50pm 4 7 mph 1013.2mb - 53f
10:40pm 7 9 mph 1013.5mb - 54f
10:30pm 7 9 mph 1013.5mb - 54f
10:20pm 4 7 mph 1013.5mb - 54f
10:10pm 4 9 mph 1013.5mb - 54f
10:00pm 4 7 mph 1013.5mb 72f 54f
9:50pm 2 4 mph 1013.4mb - 54f
9:40pm 2 7 mph 1013.5mb - 53f
9:30pm 4 7 mph 1013.7mb - 53f
9:20pm 4 7 mph 1013.7mb - 53f
9:10pm 4 7 mph 1013.6mb - 53f
9:00pm 4 7 mph 1013.6mb 72f 53f
8:50pm 4 7 mph 1013.7mb - 53f
8:40pm 4 7 mph 1013.7mb - 53f
8:30pm 4 7 mph 1013.8mb - 53f
8:20pm 4 7 mph 1013.9mb - 53f
8:10pm 4 7 mph 1014mb - 53f
8:00pm 4 7 mph 1014mb 73f 53f
7:50pm 4 7 mph 1014mb - 52f
7:40pm 4 7 mph 1014mb - 52f
7:30pm 4
mph
1013.8mb - 53f
7:20pm 4 7 mph 1013.8mb - 53f
7:00pm 4 7 mph 1013.5mb 73f 52f
6:50pm 4 7 mph 1013.3mb - 52f
6:40pm 4 9 mph 1013.3mb - 52f
6:30pm 4 9 mph 1013.3mb - 52f
6:20pm 7
mph
1013.2mb - 52f
6:10pm 7 9 mph 1013.4mb - 52f
6:00pm 4 11 mph 1013.5mb 74f 52f
5:50pm 4 7 mph 1013.4mb - 52f
5:40pm 7 9 mph 1013.5mb - 51f
5:30pm 7 9 mph 1013.7mb - 51f
5:20pm 4 9 mph 1013.9mb - 51f
5:10pm 7 9 mph 1014mb - 51f
5:00pm 7 9 mph 1014mb 74f 51f
4:50pm 4 9 mph 1014mb - 51f
4:40pm 4 7 mph 1014.1mb - 51f
4:30pm 4 7 mph 1014mb - 51f
4:20pm 7 9 mph 1013.9mb - 51f
4:10pm 7 9 mph 1014mb - 51f
4:00pm 4 7 mph 1014.2mb 74f 51f
3:50pm 4 7 mph 1014.4mb - 51f
3:40pm 2 4 mph 1014.6mb - 51f
3:30pm 2 4 mph 1014.7mb - 51f
3:20pm 4 7 mph 1014.6mb - 51f
3:10pm 4 7 mph 1014.7mb - 51f
3:00pm 4 7 mph 1014.8mb 74f 51f
2:50pm 4 7 mph 1014.9mb - 51f
2:40pm 4 7 mph 1015mb - 51f
2:30pm 4 7 mph 1015.2mb - 51f
2:20pm 4 9 mph 1015.4mb - 51f
2:10pm 7 9 mph 1015.6mb - 51f
2:00pm 4 9 mph 1015.6mb 74f 51f
1:50pm 4 7 mph 1015.8mb - 51f
1:40pm 4 7 mph 1016mb - 51f
1:30pm 4 9 mph 1016.1mb - 51f
1:20pm 7 11 mph 1016.2mb - 52f
1:10pm 9 11 mph 1016.4mb - 53f
1:00pm 7 13 mph 1016.4mb 74f 53f
12:50pm 2 9 mph 1016.4mb - 53f
12:40pm 4 7 mph 1016.4mb - 54f
12:30pm  -  2 mph 1016.6mb - 54f
12:20pm 4 7 mph 1016.7mb - 54f
12:10pm 4 9 mph 1016.8mb - 54f
12:00pm 7 9 mph 1016.9mb 73f 54f
11:50am 7 9 mph 1016.9mb - 54f
11:40am 7 11 mph 1016.9mb - 55f
11:30am 7 9 mph 1016.9mb - 55f
11:20am 4 9 mph 1016.8mb - 55f
11:10am 7 9 mph 1016.8mb - 55f
11:00am 4 9 mph 1016.8mb 73f 55f
10:50am 4 9 mph 1016.8mb - 55f
10:40am 4 7 mph 1016.7mb - 55f
10:30am 7
mph
1016.6mb - 55f
10:20am 4 7 mph 1016.7mb - 55f
10:10am 4 7 mph 1016.7mb - 56f
9:50am 4 7 mph 1016.5mb - 56f
9:40am 4 7 mph 1016.4mb - 55f
9:30am 7
mph
1016.5mb - 55f
9:20am 7 9 mph 1016.4mb - 55f
9:10am 7 9 mph 1016.5mb - 56f
9:00am 4 7 mph 1016.5mb 73f 56f
8:50am 7 9 mph 1016.4mb - 56f
8:40am 7 9 mph 1016.2mb - 56f
8:30am 7 9 mph 1016.2mb - 56f
8:20am 9 11 mph 1016.1mb - 56f
8:10am 7 9 mph 1016.1mb - 56f
8:00am 7 9 mph 1016mb 74f 56f
7:50am 7 9 mph 1016mb - 56f
7:40am 7 9 mph 1016mb - 55f
7:30am 7 9 mph 1016.1mb - 55f
7:20am 4 7 mph 1016.1mb - 55f
7:10am 4 7 mph 1016.1mb - 55f
7:00am 7 9 mph 1016mb 74f 55f
6:50am 7 9 mph 1016.1mb - 55f
6:40am 4 7 mph 1016.2mb - 55f
6:30am 7
mph
1016.2mb - 55f
6:20am 7 9 mph 1016.1mb - 55f
6:10am 7 9 mph 1016.1mb - 56f
6:00am 7 9 mph 1016.1mb 74f 56f
5:50am 7 9 mph 1016.3mb - 56f
5:40am 7 9 mph 1016.3mb - 56f
5:30am 7 9 mph 1016.4mb - 56f
5:20am 7 9 mph 1016.6mb - 56f
5:10am 7 9 mph 1016.4mb - 56f
5:00am 7 9 mph 1016.1mb 74f 56f
4:50am 7 11 mph 1015.8mb - 56f
4:40am 7 11 mph 1015.5mb - 56f
4:30am 9 11 mph 1015.5mb - 56f
4:20am 7 9 mph 1015.4mb - 56f
4:10am 4 9 mph 1015.5mb - 56f
4:00am 4 7 mph 1015.8mb 74f 56f
3:50am 7 9 mph 1015.7mb - 56f
3:40am 4 7 mph 1015.9mb - 56f
3:30am 4 9 mph 1016mb - 56f
3:20am 4 7 mph 1015.9mb - 57f
3:10am 4 7 mph 1016.1mb - 57f
3:00am 4 9 mph 1016.1mb 74f 57f
2:50am 7
mph
1015.9mb - 57f
2:40am 7
mph
1016mb - 57f
2:30am 7 9 mph 1015.8mb - 57f
2:20am 7 9 mph 1015.6mb - 57f
2:10am 9 11 mph 1015.4mb - 57f
2:00am 7 9 mph 1015.6mb 73f 57f
1:50am 7 9 mph 1015.6mb - 57f
1:40am 7 9 mph 1015.7mb - 57f
1:30am 7 9 mph 1015.9mb - 58f
1:20am 7 9 mph 1016mb - 58f
1:10am 7 9 mph 1016mb - 58f
1:00am 7 9 mph 1016.1mb 74f 58f
12:50am 4 9 mph 1016.2mb - 58f
12:40am 7 9 mph 1016.1mb - 58f
12:30am 7 9 mph 1016.1mb - 58f
12:20am 7 9 mph 1016.2mb - 58f
12:10am 7 9 mph 1016.1mb - 59f
12:00am 7 9 mph 1016.2mb 74f 59f
Wed 05/20 11:50pm 7 11 mph 1016.3mb - 59f
11:40pm 7 9 mph 1016.4mb - 60f
11:30pm 7 9 mph 1016.4mb - 60f
11:10pm 7 11 mph 1016.5mb - 61f
11:00pm 7 11 mph 1016.7mb 74f 61f
10:50pm 7 9 mph 1016.7mb - 61f
10:40pm 7 11 mph 1016.7mb - 61f
10:30pm 9 11 mph 1016.8mb - 61f
10:20pm 7 9 mph 1016.9mb - 61f
10:10pm 7 11 mph 1016.8mb - 61f
10:00pm 9 11 mph 1016.7mb 74f 61f
9:50pm 9 13 mph 1016.7mb - 62f
9:40pm 7 13 mph 1016.7mb - 62f
9:30pm 7 11 mph 1016.6mb - 62f
9:20pm 7 11 mph 1016.5mb - 62f
9:10pm 9 11 mph 1016.4mb - 62f
9:00pm 9 13 mph 1016.2mb 74f 63f
8:50pm 9 11 mph 1016.1mb - 63f
8:40pm 9 11 mph 1016.1mb - 63f
8:30pm 9 11 mph 1016.1mb - 63f
8:20pm 9 11 mph 1016mb - 63f
8:10pm 9 11 mph 1015.8mb - 64f
8:00pm 9 13 mph 1015.6mb 74f 64f
7:50pm 11 16 mph 1015.5mb - 64f
7:40pm 13 18 mph 1015.4mb - 65f
7:30pm 13 16 mph 1015.4mb - 65f
7:20pm 11 16 mph 1015.3mb - 65f
7:10pm 11 16 mph 1015.3mb - 65f
7:00pm 13 16 mph 1015.1mb 74f 65f
6:50pm 13 18 mph 1015mb - 65f
6:40pm 13 18 mph 1015mb - 65f
6:30pm 13 20 mph 1015mb - 65f
6:20pm 13 18 mph 1014.9mb - 65f
6:10pm 16 20 mph 1014.9mb - 65f
6:00pm 16 20 mph 1014.9mb 74f 65f
5:50pm 16 20 mph 1014.9mb - 65f
5:40pm 16 22 mph 1014.9mb - 65f
5:30pm 16 22 mph 1014.9mb - 64f
5:20pm 16 20 mph 1014.8mb - 65f
5:10pm 18 22 mph 1014.9mb - 65f
5:00pm 13 20 mph 1014.8mb 75f 64f
4:50pm 16 20 mph 1014.9mb - 64f
4:40pm 16 20 mph 1014.9mb - 64f
4:30pm 13 18 mph 1014.9mb - 64f
4:20pm 16 22 mph 1014.9mb - 64f
4:10pm 13 20 mph 1014.8mb - 64f
4:00pm 16 22 mph 1014.8mb 75f 64f
3:50pm 16 20 mph 1014.7mb - 64f
3:40pm 16 22 mph 1014.7mb - 64f
3:30pm 16 20 mph 1014.7mb - 64f
3:20pm 18 22 mph 1014.7mb - 64f
3:10pm 18 22 mph 1014.8mb - 64f
3:00pm 16 22 mph 1014.9mb 75f 64f
2:50pm 18 22 mph 1014.9mb - 64f
2:40pm 16 20 mph 1014.9mb - 63f
2:30pm 16 20 mph 1014.8mb - 63f
2:20pm 13 18 mph 1014.8mb - 63f
2:10pm 13 20 mph 1014.9mb - 63f
2:00pm 16 20 mph 1014.9mb 75f 63f
1:50pm 18 22 mph 1014.9mb - 63f
1:40pm 16 25 mph 1014.9mb - 63f
1:30pm 16 22 mph 1014.7mb - 63f
1:20pm 16 25 mph 1014.8mb - 63f
1:10pm 13 20 mph 1014.6mb - 63f
1:00pm 16 22 mph 1014.7mb 75f 63f
12:50pm 16 22 mph 1014.9mb - 63f
12:40pm 16 25 mph 1014.9mb - 63f
12:30pm 16 25 mph 1015mb - 63f
12:20pm 18 25 mph 1015mb - 63f
12:10pm 18 25 mph 1015.1mb - 62f
12:00pm 20 27 mph 1015.1mb 75f 62f
11:50am 20 27 mph 1015mb - 62f
11:40am 20 25 mph 1015mb - 62f
11:30am 18 27 mph 1015mb - 62f
11:20am 18 22 mph 1014.9mb - 62f
11:10am 18 25 mph 1014.9mb - 62f
11:00am 16 25 mph 1014.8mb 75f 62f
10:50am 16 22 mph 1014.9mb - 61f
10:40am 18 25 mph 1014.8mb - 61f
10:30am 18 25 mph 1014.8mb - 61f
10:20am 18 25 mph 1014.8mb - 61f
10:10am 18 25 mph 1014.7mb - 61f
10:00am 20 25 mph 1014.8mb 75f 61f
9:50am 13 20 mph 1014.8mb - 61f
9:40am 18 22 mph 1014.9mb - 61f
9:30am 18 22 mph 1014.8mb - 61f
9:20am 16 22 mph 1014.8mb - 61f
9:10am 16 22 mph 1014.7mb - 61f
9:00am 18 22 mph 1014.7mb 74f 61f
8:50am 16 27 mph 1014.8mb - 60f
8:40am 18 25 mph 1014.7mb - 61f
8:30am 20 27 mph 1014.7mb - 60f
8:20am 18 25 mph 1014.5mb - 60f
8:10am 16 27 mph 1014.4mb - 61f
8:00am 13 18 mph 1014.2mb 75f 60f
7:50am 13 18 mph 1014.1mb - 60f
7:40am 13 22 mph 1014.1mb - 60f
7:30am 13 18 mph 1014.2mb - 60f
7:20am 13 20 mph 1014.1mb - 60f
7:10am 16 22 mph 1014mb - 60f
7:00am 13 22 mph 1014mb 75f 60f
6:50am 11 18 mph 1013.9mb - 60f
6:40am 11 16 mph 1013.8mb - 60f
6:30am 13 18 mph 1013.8mb - 60f
6:20am 11 18 mph 1013.8mb - 60f
6:10am 16 22 mph 1013.8mb - 61f
6:00am 16 20 mph 1013.5mb 75f 61f
5:50am 18 22 mph 1013.3mb - 61f
5:40am 20 25 mph 1013.2mb - 62f
5:30am 18 22 mph 1013.3mb - 61f
5:20am 18 22 mph 1013.2mb - 62f
5:10am 13 20 mph 1013.2mb - 62f
5:00am 16 22 mph 1013mb 75f 63f
4:50am 18 22 mph 1013mb - 63f
4:40am 20 27 mph 1013mb - 63f
4:30am 18 22 mph 1013.2mb - 64f
4:20am 16 22 mph 1013.4mb - 64f
4:10am 16 22 mph 1013.2mb - 65f
4:00am 20 27 mph 1013mb 75f 65f
3:50am 20 27 mph 1013mb - 66f
3:40am 22 29 mph 1012.8mb - 67f
3:30am 18 27 mph 1012.7mb - 67f
3:20am 13 18 mph 1012.7mb - 68f
3:10am 16 22 mph 1012.2mb - 69f
3:00am 16 22 mph 1012.2mb 76f 69f
2:50am 16 22 mph 1012.2mb - 70f
2:40am 16 25 mph 1012.1mb - 71f
2:30am 13 22 mph 1011.9mb - 71f
2:20am 11 18 mph 1011.8mb - 71f
2:10am 16 20 mph 1011.5mb - 72f
2:00am 18 22 mph 1011.4mb 75f 72f
1:50am 18 22 mph 1011.4mb - 73f
1:40am 16 22 mph 1011.3mb - 73f
1:30am 16 20 mph 1011.2mb - 73f
1:20am 16 18 mph 1011.2mb - 74f
1:10am 16 20 mph 1011mb - 74f
1:00am 18 22 mph 1010.9mb 75f 74f
12:50am 18 20 mph 1010.9mb - 74f
12:40am 16 20 mph 1010.9mb - 75f
12:30am 16 20 mph 1010.7mb - 75f
12:20am 16 20 mph 1010.5mb - 76f
12:10am 16 22 mph 1010.5mb - 76f
12:00am 16 20 mph 1010.5mb 76f 76f
Tue 05/19 11:50pm 16 20 mph 1010.5mb - 76f
11:40pm 13 16 mph 1010.3mb - 77f
11:30pm 11 16 mph 1010.3mb - 76f
11:20pm 9 11 mph 1010.3mb - 77f
11:10pm 7 9 mph 1010.2mb - 77f
11:00pm 9 11 mph 1010.2mb 76f 77f
10:50pm 9 13 mph 1010.2mb - 77f
10:40pm 9 11 mph 1010.1mb - 77f
10:30pm 9 11 mph 1010.2mb - 78f
10:20pm 7 9 mph 1010.2mb - 78f
10:10pm 7
mph
1010.3mb - 77f
10:00pm 4 7 mph 1010.2mb 76f 77f
9:50pm 4 7 mph 1010.2mb - 76f
9:40pm 7
mph
1010.1mb - 76f
9:30pm 7
mph
1010.1mb - 76f
9:20pm 7 9 mph 1010.1mb - 76f
9:10pm 7 9 mph 1010mb - 77f
9:00pm 7 9 mph 1009.9mb 76f 77f
8:50pm 7 9 mph 1009.8mb - 77f
8:40pm 7 9 mph 1009.7mb - 78f
8:30pm 9
mph
1009.6mb - 78f
8:20pm 7 9 mph 1009.5mb - 78f
8:10pm 7
mph
1009.3mb - 78f
8:00pm 9
mph
1009.1mb 76f 78f
7:50pm 9 11 mph 1009mb - 79f
7:40pm 9 11 mph 1008.8mb - 79f
7:30pm 7 9 mph 1008.7mb - 79f
7:20pm 9
mph
1008.7mb - 79f
7:10pm 9 11 mph 1008.7mb - 79f
7:00pm 9 11 mph 1008.8mb 76f 80f
6:50pm 9 11 mph 1008.9mb - 80f
6:40pm 9 11 mph 1009.1mb - 80f
6:30pm 9
mph
1009.1mb - 80f
6:20pm 9 11 mph 1009.1mb - 80f
6:10pm 9 11 mph 1009.2mb - 79f
6:00pm 9 11 mph 1009.2mb 76f 79f
5:50pm 9 11 mph 1009.3mb - 79f
5:40pm 9 11 mph 1009.5mb - 79f
5:30pm 9 11 mph 1009.5mb - 79f
5:20pm 9 11 mph 1009.6mb - 79f
5:10pm 9 11 mph 1009.8mb - 78f
5:00pm 9 13 mph 1009.9mb 77f 78f
4:50pm 9 13 mph 1010mb - 77f
4:40pm 9 11 mph 1010mb - 77f
4:30pm 9 13 mph 1010.3mb - 77f
4:20pm 9 11 mph 1010.5mb - 76f
4:10pm 7 11 mph 1010.8mb - 76f
4:00pm 7 9 mph 1010.9mb 78f 76f
3:50pm 9 11 mph 1011.1mb - 75f
3:40pm 7 11 mph 1011.3mb - 74f
3:30pm 7 9 mph 1011.5mb - 74f
3:20pm 7
mph
1011.7mb - 74f
3:10pm 4 7 mph 1011.9mb - 73f
3:00pm 4 7 mph 1012.1mb 77f 73f